sensor_id;sensor_type;location;lat;lon;timestamp;pressure;altitude;pressure_sealevel;temperature
53412;BMP280;39307;52.870;13.660;2023-05-29T00:01:31;101426.84;;;13.23
53412;BMP280;39307;52.870;13.660;2023-05-29T00:03:57;101438.16;;;12.95
53412;BMP280;39307;52.870;13.660;2023-05-29T00:06:24;101429.56;;;12.86
53412;BMP280;39307;52.870;13.660;2023-05-29T00:08:50;101436.44;;;12.87
53412;BMP280;39307;52.870;13.660;2023-05-29T00:11:16;101438.56;;;12.69
53412;BMP280;39307;52.870;13.660;2023-05-29T00:13:42;101441.81;;;12.57
53412;BMP280;39307;52.870;13.660;2023-05-29T00:16:09;101441.91;;;12.49
53412;BMP280;39307;52.870;13.660;2023-05-29T00:18:35;101439.06;;;12.51
53412;BMP280;39307;52.870;13.660;2023-05-29T00:21:02;101437.44;;;12.50
53412;BMP280;39307;52.870;13.660;2023-05-29T00:23:28;101446.31;;;12.49
53412;BMP280;39307;52.870;13.660;2023-05-29T00:25:54;101442.16;;;12.40
53412;BMP280;39307;52.870;13.660;2023-05-29T00:28:20;101449.22;;;12.54
53412;BMP280;39307;52.870;13.660;2023-05-29T00:30:46;101452.75;;;12.61
53412;BMP280;39307;52.870;13.660;2023-05-29T00:33:12;101453.56;;;12.47
53412;BMP280;39307;52.870;13.660;2023-05-29T00:35:39;101469.09;;;12.34
53412;BMP280;39307;52.870;13.660;2023-05-29T00:38:05;101466.47;;;12.34
53412;BMP280;39307;52.870;13.660;2023-05-29T00:40:31;101467.28;;;12.35
53412;BMP280;39307;52.870;13.660;2023-05-29T00:42:57;101465.63;;;12.19
53412;BMP280;39307;52.870;13.660;2023-05-29T00:45:23;101465.00;;;12.10
53412;BMP280;39307;52.870;13.660;2023-05-29T00:47:50;101473.25;;;12.29
53412;BMP280;39307;52.870;13.660;2023-05-29T00:50:16;101469.72;;;12.36
53412;BMP280;39307;52.870;13.660;2023-05-29T00:52:44;101471.75;;;12.34
53412;BMP280;39307;52.870;13.660;2023-05-29T00:55:11;101465.78;;;12.18
53412;BMP280;39307;52.870;13.660;2023-05-29T00:57:37;101462.53;;;12.16
53412;BMP280;39307;52.870;13.660;2023-05-29T01:00:05;101464.03;;;12.11
53412;BMP280;39307;52.870;13.660;2023-05-29T01:02:32;101468.72;;;12.01
53412;BMP280;39307;52.870;13.660;2023-05-29T01:04:58;101469.22;;;11.96
53412;BMP280;39307;52.870;13.660;2023-05-29T01:07:25;101474.47;;;11.96
53412;BMP280;39307;52.870;13.660;2023-05-29T01:09:51;101473.56;;;11.82
53412;BMP280;39307;52.870;13.660;2023-05-29T01:20:38;101482.41;;;11.51
53412;BMP280;39307;52.870;13.660;2023-05-29T01:23:14;101479.84;;;11.35
53412;BMP280;39307;52.870;13.660;2023-05-29T01:26:07;101487.25;;;11.16
53412;BMP280;39307;52.870;13.660;2023-05-29T01:28:42;101477.28;;;11.19
53412;BMP280;39307;52.870;13.660;2023-05-29T01:31:11;101468.84;;;11.47
53412;BMP280;39307;52.870;13.660;2023-05-29T01:33:41;101472.47;;;11.30
53412;BMP280;39307;52.870;13.660;2023-05-29T01:36:08;101488.09;;;11.16
53412;BMP280;39307;52.870;13.660;2023-05-29T01:38:35;101477.28;;;11.03
53412;BMP280;39307;52.870;13.660;2023-05-29T01:41:02;101474.66;;;11.11
53412;BMP280;39307;52.870;13.660;2023-05-29T01:43:29;101478.38;;;11.24
53412;BMP280;39307;52.870;13.660;2023-05-29T01:45:56;101478.19;;;11.34
53412;BMP280;39307;52.870;13.660;2023-05-29T01:48:23;101475.59;;;11.26
53412;BMP280;39307;52.870;13.660;2023-05-29T01:50:51;101472.66;;;11.29
53412;BMP280;39307;52.870;13.660;2023-05-29T01:53:21;101475.31;;;11.13
53412;BMP280;39307;52.870;13.660;2023-05-29T01:55:48;101481.56;;;11.04
53412;BMP280;39307;52.870;13.660;2023-05-29T01:58:15;101481.91;;;11.01
53412;BMP280;39307;52.870;13.660;2023-05-29T02:00:42;101492.50;;;11.16
53412;BMP280;39307;52.870;13.660;2023-05-29T02:03:08;101489.56;;;11.11
53412;BMP280;39307;52.870;13.660;2023-05-29T02:05:37;101488.09;;;11.16
53412;BMP280;39307;52.870;13.660;2023-05-29T02:08:03;101496.97;;;11.07
53412;BMP280;39307;52.870;13.660;2023-05-29T02:10:29;101497.16;;;10.98
53412;BMP280;39307;52.870;13.660;2023-05-29T02:12:55;101493.06;;;10.95
53412;BMP280;39307;52.870;13.660;2023-05-29T02:15:21;101495.81;;;11.02
53412;BMP280;39307;52.870;13.660;2023-05-29T02:17:48;101494.34;;;11.07
53412;BMP280;39307;52.870;13.660;2023-05-29T02:20:14;101494.81;;;11.03
53412;BMP280;39307;52.870;13.660;2023-05-29T02:22:40;101491.91;;;10.98
53412;BMP280;39307;52.870;13.660;2023-05-29T02:25:07;101489.28;;;10.98
53412;BMP280;39307;52.870;13.660;2023-05-29T02:27:33;101495.16;;;11.00
53412;BMP280;39307;52.870;13.660;2023-05-29T02:30:00;101492.38;;;10.94
53412;BMP280;39307;52.870;13.660;2023-05-29T02:32:26;101494.72;;;10.89
53412;BMP280;39307;52.870;13.660;2023-05-29T02:34:52;101501.41;;;10.83
53412;BMP280;39307;52.870;13.660;2023-05-29T02:37:18;101503.88;;;10.85
53412;BMP280;39307;52.870;13.660;2023-05-29T02:39:44;101497.81;;;10.84
53412;BMP280;39307;52.870;13.660;2023-05-29T02:42:11;101500.13;;;10.71
53412;BMP280;39307;52.870;13.660;2023-05-29T02:44:37;101499.94;;;10.81
53412;BMP280;39307;52.870;13.660;2023-05-29T02:47:03;101499.47;;;10.69
53412;BMP280;39307;52.870;13.660;2023-05-29T02:49:29;101495.56;;;10.73
53412;BMP280;39307;52.870;13.660;2023-05-29T02:51:55;101495.56;;;10.73
53412;BMP280;39307;52.870;13.660;2023-05-29T02:54:23;101491.59;;;10.77
53412;BMP280;39307;52.870;13.660;2023-05-29T02:56:49;101487.19;;;10.78
53412;BMP280;39307;52.870;13.660;2023-05-29T02:59:15;101489.81;;;10.78
53412;BMP280;39307;52.870;13.660;2023-05-29T03:01:41;101493.09;;;10.80
53412;BMP280;39307;52.870;13.660;2023-05-29T03:04:09;101496.34;;;10.82
53412;BMP280;39307;52.870;13.660;2023-05-29T03:06:36;101491.09;;;10.82
53412;BMP280;39307;52.870;13.660;2023-05-29T03:09:03;101492.06;;;10.96
53412;BMP280;39307;52.870;13.660;2023-05-29T03:11:29;101489.47;;;10.81
53412;BMP280;39307;52.870;13.660;2023-05-29T03:13:55;101479.63;;;10.98
53412;BMP280;39307;52.870;13.660;2023-05-29T03:16:21;101486.66;;;10.98
53412;BMP280;39307;52.870;13.660;2023-05-29T03:18:47;101495.81;;;11.02
53412;BMP280;39307;52.870;13.660;2023-05-29T03:21:14;101502.34;;;11.06
53412;BMP280;39307;52.870;13.660;2023-05-29T03:23:40;101491.72;;;11.07
53412;BMP280;39307;52.870;13.660;2023-05-29T03:26:06;101493.88;;;10.96
53412;BMP280;39307;52.870;13.660;2023-05-29T03:28:32;101494.50;;;11.06
53412;BMP280;39307;52.870;13.660;2023-05-29T03:30:58;101498.28;;;10.88
53412;BMP280;39307;52.870;13.660;2023-05-29T03:33:25;101497.44;;;11.03
53412;BMP280;39307;52.870;13.660;2023-05-29T03:35:51;101497.59;;;11.09
53412;BMP280;39307;52.870;13.660;2023-05-29T03:38:17;101497.09;;;11.06
53412;BMP280;39307;52.870;13.660;2023-05-29T03:40:43;101496.28;;;11.05
53412;BMP280;39307;52.870;13.660;2023-05-29T03:43:10;101502.34;;;11.06
53412;BMP280;39307;52.870;13.660;2023-05-29T03:45:36;101501.53;;;11.05
53412;BMP280;39307;52.870;13.660;2023-05-29T03:48:02;101497.97;;;10.98
53412;BMP280;39307;52.870;13.660;2023-05-29T03:50:28;101507.91;;;11.11
53412;BMP280;39307;52.870;13.660;2023-05-29T03:52:55;101507.72;;;11.12
53412;BMP280;39307;52.870;13.660;2023-05-29T03:55:21;101504.97;;;11.14
53412;BMP280;39307;52.870;13.660;2023-05-29T03:57:47;101512.69;;;11.07
53412;BMP280;39307;52.870;13.660;2023-05-29T04:00:13;101510.41;;;11.04
53412;BMP280;39307;52.870;13.660;2023-05-29T04:02:40;101510.06;;;11.07
53412;BMP280;39307;52.870;13.660;2023-05-29T04:05:07;101511.69;;;11.08
53412;BMP280;39307;52.870;13.660;2023-05-29T04:07:34;101514.31;;;11.08
53412;BMP280;39307;52.870;13.660;2023-05-29T04:10:00;101509.41;;;10.97
53412;BMP280;39307;52.870;13.660;2023-05-29T04:12:27;101505.97;;;11.05
53412;BMP280;39307;52.870;13.660;2023-05-29T04:14:53;101515.25;;;11.15
53412;BMP280;39307;52.870;13.660;2023-05-29T04:17:20;101504.97;;;11.14
53412;BMP280;39307;52.870;13.660;2023-05-29T04:19:46;101509.06;;;11.00
53412;BMP280;39307;52.870;13.660;2023-05-29T04:22:12;101506.78;;;11.05
53412;BMP280;39307;52.870;13.660;2023-05-29T04:24:42;101516.59;;;11.11
53412;BMP280;39307;52.870;13.660;2023-05-29T04:27:09;101515.94;;;11.17
53412;BMP280;39307;52.870;13.660;2023-05-29T04:29:35;101526.03;;;11.36
53412;BMP280;39307;52.870;13.660;2023-05-29T04:32:02;101523.25;;;11.37
53412;BMP280;39307;52.870;13.660;2023-05-29T04:34:28;101516.31;;;11.52
53412;BMP280;39307;52.870;13.660;2023-05-29T04:36:55;101517.44;;;11.65
53412;BMP280;39307;52.870;13.660;2023-05-29T04:39:21;101518.59;;;11.63
53412;BMP280;39307;52.870;13.660;2023-05-29T04:41:47;101523.13;;;11.77
53412;BMP280;39307;52.870;13.660;2023-05-29T04:44:13;101517.53;;;11.80
53412;BMP280;39307;52.870;13.660;2023-05-29T04:46:39;101518.25;;;11.66
53412;BMP280;39307;52.870;13.660;2023-05-29T04:49:06;101518.25;;;11.66
53412;BMP280;39307;52.870;13.660;2023-05-29T04:51:32;101521.53;;;11.60
53412;BMP280;39307;52.870;13.660;2023-05-29T04:53:58;101528.19;;;11.78
53412;BMP280;39307;52.870;13.660;2023-05-29T04:56:24;101524.72;;;11.85
53412;BMP280;39307;52.870;13.660;2023-05-29T04:58:50;101527.47;;;11.92
53412;BMP280;39307;52.870;13.660;2023-05-29T05:01:17;101515.38;;;12.13
53412;BMP280;39307;52.870;13.660;2023-05-29T05:03:43;101517.91;;;12.21
53412;BMP280;39307;52.870;13.660;2023-05-29T05:06:10;101523.38;;;12.19
53412;BMP280;39307;52.870;13.660;2023-05-29T05:08:36;101514.72;;;12.33
53412;BMP280;39307;52.870;13.660;2023-05-29T05:11:03;101519.38;;;12.45
53412;BMP280;39307;52.870;13.660;2023-05-29T05:13:29;101522.06;;;12.60
53412;BMP280;39307;52.870;13.660;2023-05-29T05:15:55;101507.31;;;12.73
53412;BMP280;39307;52.870;13.660;2023-05-29T05:18:22;101509.50;;;12.92
53412;BMP280;39307;52.870;13.660;2023-05-29T05:20:48;101502.16;;;13.01
53412;BMP280;39307;52.870;13.660;2023-05-29T05:23:14;101516.75;;;13.18
53412;BMP280;39307;52.870;13.660;2023-05-29T05:25:40;101514.59;;;13.22
53412;BMP280;39307;52.870;13.660;2023-05-29T05:28:08;101514.22;;;13.39
53412;BMP280;39307;52.870;13.660;2023-05-29T05:30:34;101512.25;;;13.41
53412;BMP280;39307;52.870;13.660;2023-05-29T05:33:01;101519.78;;;13.44
53412;BMP280;39307;52.870;13.660;2023-05-29T05:35:27;101519.56;;;13.59
53412;BMP280;39307;52.870;13.660;2023-05-29T05:37:53;101517.91;;;13.73
53412;BMP280;39307;52.870;13.660;2023-05-29T05:40:19;101516.81;;;13.82
53412;BMP280;39307;52.870;13.660;2023-05-29T05:42:46;101511.47;;;13.89
53412;BMP280;39307;52.870;13.660;2023-05-29T05:45:12;101512.00;;;13.99
53412;BMP280;39307;52.870;13.660;2023-05-29T05:47:38;101511.25;;;14.05
53412;BMP280;39307;52.870;13.660;2023-05-29T05:50:04;101517.09;;;14.01
53412;BMP280;39307;52.870;13.660;2023-05-29T05:52:31;101523.41;;;14.06
53412;BMP280;39307;52.870;13.660;2023-05-29T05:54:57;101519.06;;;14.13
53412;BMP280;39307;52.870;13.660;2023-05-29T05:57:23;101515.44;;;14.35
53412;BMP280;39307;52.870;13.660;2023-05-29T05:59:49;101525.31;;;14.33
53412;BMP280;39307;52.870;13.660;2023-05-29T06:02:16;101523.88;;;14.51
53412;BMP280;39307;52.870;13.660;2023-05-29T06:04:42;101528.50;;;14.49
53412;BMP280;39307;52.870;13.660;2023-05-29T06:07:08;101523.56;;;14.60
53412;BMP280;39307;52.870;13.660;2023-05-29T06:09:34;101526.69;;;14.70
53412;BMP280;39307;52.870;13.660;2023-05-29T06:12:00;101529.38;;;14.76
53412;BMP280;39307;52.870;13.660;2023-05-29T06:14:27;101530.69;;;14.87
53412;BMP280;39307;52.870;13.660;2023-05-29T06:16:53;101535.88;;;15.01
53412;BMP280;39307;52.870;13.660;2023-05-29T06:19:19;101536.44;;;15.17
53412;BMP280;39307;52.870;13.660;2023-05-29T06:21:46;101547.53;;;15.13
53412;BMP280;39307;52.870;13.660;2023-05-29T06:24:12;101546.69;;;15.33
53412;BMP280;39307;52.870;13.660;2023-05-29T06:26:39;101549.94;;;15.35
53412;BMP280;39307;52.870;13.660;2023-05-29T06:29:05;101552.44;;;15.49
53412;BMP280;39307;52.870;13.660;2023-05-29T06:31:31;101553.75;;;15.59
53412;BMP280;39307;52.870;13.660;2023-05-29T06:33:57;101556.44;;;15.72
53412;BMP280;39307;52.870;13.660;2023-05-29T06:36:23;101558.34;;;15.51
53412;BMP280;39307;52.870;13.660;2023-05-29T06:38:50;101555.63;;;15.72
53412;BMP280;39307;52.870;13.660;2023-05-29T06:41:17;101549.19;;;15.81
53412;BMP280;39307;52.870;13.660;2023-05-29T06:43:43;101550.00;;;15.88
53412;BMP280;39307;52.870;13.660;2023-05-29T06:46:10;101550.28;;;15.99
53412;BMP280;39307;52.870;13.660;2023-05-29T06:48:36;101550.47;;;16.04
53412;BMP280;39307;52.870;13.660;2023-05-29T06:51:03;101561.31;;;16.15
53412;BMP280;39307;52.870;13.660;2023-05-29T06:53:29;101563.59;;;16.24
53412;BMP280;39307;52.870;13.660;2023-05-29T06:55:55;101559.88;;;16.13
53412;BMP280;39307;52.870;13.660;2023-05-29T06:58:21;101557.47;;;16.17
53412;BMP280;39307;52.870;13.660;2023-05-29T07:00:48;101562.59;;;16.25
53412;BMP280;39307;52.870;13.660;2023-05-29T07:03:14;101560.34;;;16.16
53412;BMP280;39307;52.870;13.660;2023-05-29T07:05:40;101557.50;;;16.30
53412;BMP280;39307;52.870;13.660;2023-05-29T07:08:07;101544.31;;;16.43
53412;BMP280;39307;52.870;13.660;2023-05-29T07:10:33;101541.91;;;16.54
53412;BMP280;39307;52.870;13.660;2023-05-29T07:13:00;101546.59;;;16.59
53412;BMP280;39307;52.870;13.660;2023-05-29T07:15:26;101552.88;;;16.64
53412;BMP280;39307;52.870;13.660;2023-05-29T07:17:52;101551.28;;;16.70
53412;BMP280;39307;52.870;13.660;2023-05-29T07:20:18;101548.84;;;16.75
53412;BMP280;39307;52.870;13.660;2023-05-29T07:22:44;101554.31;;;16.79
53412;BMP280;39307;52.870;13.660;2023-05-29T07:25:11;101562.47;;;17.03
53412;BMP280;39307;52.870;13.660;2023-05-29T07:27:39;101553.13;;;17.07
53412;BMP280;39307;52.870;13.660;2023-05-29T07:30:06;101554.97;;;17.20
53412;BMP280;39307;52.870;13.660;2023-05-29T07:32:33;101550.06;;;17.30
53412;BMP280;39307;52.870;13.660;2023-05-29T07:35:00;101553.09;;;17.39
53412;BMP280;39307;52.870;13.660;2023-05-29T07:37:26;101552.69;;;17.42
53412;BMP280;39307;52.870;13.660;2023-05-29T07:39:53;101553.47;;;17.62
53412;BMP280;39307;52.870;13.660;2023-05-29T07:42:19;101545.41;;;17.88
53412;BMP280;39307;52.870;13.660;2023-05-29T07:44:45;101549.66;;;17.95
53412;BMP280;39307;52.870;13.660;2023-05-29T07:47:11;101549.09;;;18.30
53412;BMP280;39307;52.870;13.660;2023-05-29T07:49:37;101542.94;;;18.66
53412;BMP280;39307;52.870;13.660;2023-05-29T07:52:04;101542.56;;;18.93
53412;BMP280;39307;52.870;13.660;2023-05-29T07:54:41;101539.16;;;19.10
53412;BMP280;39307;52.870;13.660;2023-05-29T07:57:08;101549.69;;;19.59
53412;BMP280;39307;52.870;13.660;2023-05-29T07:59:34;101533.53;;;19.78
53412;BMP280;39307;52.870;13.660;2023-05-29T08:02:00;101529.09;;;20.19
53412;BMP280;39307;52.870;13.660;2023-05-29T08:04:27;101531.63;;;20.72
53412;BMP280;39307;52.870;13.660;2023-05-29T08:06:53;101533.72;;;21.26
53412;BMP280;39307;52.870;13.660;2023-05-29T08:09:19;101531.41;;;21.07
53412;BMP280;39307;52.870;13.660;2023-05-29T08:11:45;101534.63;;;20.98
53412;BMP280;39307;52.870;13.660;2023-05-29T08:14:12;101535.66;;;20.85
53412;BMP280;39307;52.870;13.660;2023-05-29T08:16:38;101532.28;;;20.67
53412;BMP280;39307;52.870;13.660;2023-05-29T08:19:05;101540.66;;;20.82
53412;BMP280;39307;52.870;13.660;2023-05-29T08:21:33;101537.78;;;21.17
53412;BMP280;39307;52.870;13.660;2023-05-29T08:24:04;101537.88;;;21.68
53412;BMP280;39307;52.870;13.660;2023-05-29T08:26:30;101529.28;;;22.16
53412;BMP280;39307;52.870;13.660;2023-05-29T08:28:57;101520.63;;;22.53
53412;BMP280;39307;52.870;13.660;2023-05-29T08:31:25;101523.81;;;23.15
53412;BMP280;39307;52.870;13.660;2023-05-29T08:33:52;101521.16;;;23.52
53412;BMP280;39307;52.870;13.660;2023-05-29T08:36:20;101518.81;;;23.76
53412;BMP280;39307;52.870;13.660;2023-05-29T08:38:48;101520.94;;;23.37
53412;BMP280;39307;52.870;13.660;2023-05-29T08:41:25;101521.88;;;23.26
53412;BMP280;39307;52.870;13.660;2023-05-29T08:43:54;101519.41;;;23.25
53412;BMP280;39307;52.870;13.660;2023-05-29T08:46:20;101519.44;;;22.76
53412;BMP280;39307;52.870;13.660;2023-05-29T08:48:48;101514.13;;;22.32
53412;BMP280;39307;52.870;13.660;2023-05-29T08:51:20;101506.41;;;23.12
53412;BMP280;39307;52.870;13.660;2023-05-29T08:53:51;101513.47;;;23.55
53412;BMP280;39307;52.870;13.660;2023-05-29T08:56:19;101515.34;;;23.76
53412;BMP280;39307;52.870;13.660;2023-05-29T08:58:45;101503.50;;;24.40
53412;BMP280;39307;52.870;13.660;2023-05-29T09:01:12;101497.25;;;24.56
53412;BMP280;39307;52.870;13.660;2023-05-29T09:03:38;101496.75;;;24.95
53412;BMP280;39307;52.870;13.660;2023-05-29T09:06:05;101503.63;;;25.17
53412;BMP280;39307;52.870;13.660;2023-05-29T09:08:31;101498.53;;;25.21
53412;BMP280;39307;52.870;13.660;2023-05-29T09:11:00;101506.47;;;25.06
53412;BMP280;39307;52.870;13.660;2023-05-29T09:13:26;101512.63;;;25.06
53412;BMP280;39307;52.870;13.660;2023-05-29T09:15:58;101520.50;;;25.18
53412;BMP280;39307;52.870;13.660;2023-05-29T09:18:30;101521.81;;;25.56
53412;BMP280;39307;52.870;13.660;2023-05-29T09:20:57;101522.22;;;25.89
53412;BMP280;39307;52.870;13.660;2023-05-29T09:23:25;101522.78;;;25.91
53412;BMP280;39307;52.870;13.660;2023-05-29T09:25:53;101522.78;;;25.91
53412;BMP280;39307;52.870;13.660;2023-05-29T09:28:22;101523.25;;;25.83
53412;BMP280;39307;52.870;13.660;2023-05-29T09:30:48;101523.19;;;25.63
53412;BMP280;39307;52.870;13.660;2023-05-29T09:33:16;101526.34;;;25.51
53412;BMP280;39307;52.870;13.660;2023-05-29T09:35:43;101522.84;;;25.09
53412;BMP280;39307;52.870;13.660;2023-05-29T09:38:12;101518.19;;;25.36
53412;BMP280;39307;52.870;13.660;2023-05-29T09:40:39;101513.09;;;25.85
53412;BMP280;39307;52.870;13.660;2023-05-29T09:43:11;101505.09;;;26.00
53412;BMP280;39307;52.870;13.660;2023-05-29T09:45:41;101520.78;;;25.67
53412;BMP280;39307;52.870;13.660;2023-05-29T09:48:12;101507.41;;;25.72
53412;BMP280;39307;52.870;13.660;2023-05-29T09:50:39;101503.44;;;25.84
53412;BMP280;39307;52.870;13.660;2023-05-29T09:53:25;101521.94;;;25.80
53412;BMP280;39307;52.870;13.660;2023-05-29T09:55:53;101511.94;;;25.25
53412;BMP280;39307;52.870;13.660;2023-05-29T09:58:20;101510.88;;;25.21
53412;BMP280;39307;52.870;13.660;2023-05-29T10:00:47;101523.41;;;25.16
53412;BMP280;39307;52.870;13.660;2023-05-29T10:03:13;101516.09;;;25.02
53412;BMP280;39307;52.870;13.660;2023-05-29T10:05:40;101518.00;;;24.75
53412;BMP280;39307;52.870;13.660;2023-05-29T10:08:14;101514.75;;;24.68
53412;BMP280;39307;52.870;13.660;2023-05-29T10:10:45;101502.38;;;24.93
53412;BMP280;39307;52.870;13.660;2023-05-29T10:13:13;101502.34;;;25.34
53412;BMP280;39307;52.870;13.660;2023-05-29T10:15:45;101501.22;;;25.71
53412;BMP280;39307;52.870;13.660;2023-05-29T10:18:22;101493.56;;;25.99
53412;BMP280;39307;52.870;13.660;2023-05-29T10:20:55;101493.75;;;25.83
53412;BMP280;39307;52.870;13.660;2023-05-29T10:23:24;101499.28;;;25.52
53412;BMP280;39307;52.870;13.660;2023-05-29T10:25:53;101499.81;;;25.59
53412;BMP280;39307;52.870;13.660;2023-05-29T10:28:25;101484.88;;;25.73
53412;BMP280;39307;52.870;13.660;2023-05-29T10:31:04;101483.91;;;26.08
53412;BMP280;39307;52.870;13.660;2023-05-29T10:36:34;101486.13;;;26.31
53412;BMP280;39307;52.870;13.660;2023-05-29T10:39:02;101487.72;;;26.22
53412;BMP280;39307;52.870;13.660;2023-05-29T10:41:29;101495.22;;;25.50
53412;BMP280;39307;52.870;13.660;2023-05-29T10:44:00;101502.16;;;25.46
53412;BMP280;39307;52.870;13.660;2023-05-29T10:49:26;101493.03;;;25.47
53412;BMP280;39307;52.870;13.660;2023-05-29T10:51:52;101492.47;;;25.40
53412;BMP280;39307;52.870;13.660;2023-05-29T10:54:24;101496.94;;;25.24
53412;BMP280;39307;52.870;13.660;2023-05-29T10:56:58;101487.63;;;25.37
53412;BMP280;39307;52.870;13.660;2023-05-29T10:59:27;101474.47;;;25.91
53412;BMP280;39307;52.870;13.660;2023-05-29T11:01:54;101470.56;;;26.38
53412;BMP280;39307;52.870;13.660;2023-05-29T11:06:47;101465.72;;;26.35
53412;BMP280;39307;52.870;13.660;2023-05-29T11:09:37;101466.81;;;26.48
53412;BMP280;39307;52.870;13.660;2023-05-29T11:12:13;101464.25;;;25.78
53412;BMP280;39307;52.870;13.660;2023-05-29T11:15:07;101465.97;;;26.28
53412;BMP280;39307;52.870;13.660;2023-05-29T11:23:06;101464.66;;;26.55
53412;BMP280;39307;52.870;13.660;2023-05-29T11:25:34;101460.66;;;26.38
53412;BMP280;39307;52.870;13.660;2023-05-29T11:28:00;101459.28;;;26.70
53412;BMP280;39307;52.870;13.660;2023-05-29T11:30:26;101460.34;;;27.03
53412;BMP280;39307;52.870;13.660;2023-05-29T11:32:53;101456.09;;;27.65
53412;BMP280;39307;52.870;13.660;2023-05-29T11:35:22;101459.16;;;28.01
53412;BMP280;39307;52.870;13.660;2023-05-29T11:37:49;101453.09;;;28.24
53412;BMP280;39307;52.870;13.660;2023-05-29T11:40:15;101460.06;;;28.25
53412;BMP280;39307;52.870;13.660;2023-05-29T11:42:45;101451.50;;;27.70
53412;BMP280;39307;52.870;13.660;2023-05-29T11:45:13;101459.44;;;27.37
53412;BMP280;39307;52.870;13.660;2023-05-29T11:47:59;101460.03;;;27.15
53412;BMP280;39307;52.870;13.660;2023-05-29T11:50:28;101465.44;;;27.05
53412;BMP280;39307;52.870;13.660;2023-05-29T11:52:56;101464.63;;;27.09
53412;BMP280;39307;52.870;13.660;2023-05-29T11:55:24;101470.00;;;27.04
53412;BMP280;39307;52.870;13.660;2023-05-29T11:57:55;101469.19;;;27.04
53412;BMP280;39307;52.870;13.660;2023-05-29T12:00:23;101452.28;;;26.98
53412;BMP280;39307;52.870;13.660;2023-05-29T12:02:51;101447.94;;;27.17
53412;BMP280;39307;52.870;13.660;2023-05-29T12:05:18;101443.03;;;27.44
53412;BMP280;39307;52.870;13.660;2023-05-29T12:07:54;101450.34;;;27.33
53412;BMP280;39307;52.870;13.660;2023-05-29T12:10:21;101456.88;;;26.83
53412;BMP280;39307;52.870;13.660;2023-05-29T12:12:59;101458.47;;;26.30
53412;BMP280;39307;52.870;13.660;2023-05-29T12:15:27;101460.50;;;25.89
53412;BMP280;39307;52.870;13.660;2023-05-29T12:17:54;101460.50;;;25.79
53412;BMP280;39307;52.870;13.660;2023-05-29T12:20:25;101452.94;;;25.71
53412;BMP280;39307;52.870;13.660;2023-05-29T12:22:51;101467.94;;;25.57
53412;BMP280;39307;52.870;13.660;2023-05-29T12:25:21;101456.69;;;25.60
53412;BMP280;39307;52.870;13.660;2023-05-29T12:27:48;101460.19;;;25.66
53412;BMP280;39307;52.870;13.660;2023-05-29T12:32:46;101453.69;;;25.47
53412;BMP280;39307;52.870;13.660;2023-05-29T12:35:19;101451.19;;;25.41
53412;BMP280;39307;52.870;13.660;2023-05-29T12:37:56;101457.59;;;25.35
53412;BMP280;39307;52.870;13.660;2023-05-29T12:40:28;101464.75;;;25.20
53412;BMP280;39307;52.870;13.660;2023-05-29T12:42:56;101457.53;;;25.20
53412;BMP280;39307;52.870;13.660;2023-05-29T12:45:27;101461.53;;;25.18
53412;BMP280;39307;52.870;13.660;2023-05-29T12:47:56;101454.00;;;25.60
53412;BMP280;39307;52.870;13.660;2023-05-29T12:50:30;101448.19;;;26.08
53412;BMP280;39307;52.870;13.660;2023-05-29T12:53:02;101449.09;;;26.33
53412;BMP280;39307;52.870;13.660;2023-05-29T12:55:30;101443.97;;;26.46
53412;BMP280;39307;52.870;13.660;2023-05-29T12:57:57;101435.13;;;26.11
53412;BMP280;39307;52.870;13.660;2023-05-29T13:00:24;101438.34;;;26.52
53412;BMP280;39307;52.870;13.660;2023-05-29T13:02:50;101436.47;;;26.23
53412;BMP280;39307;52.870;13.660;2023-05-29T13:05:17;101433.75;;;26.13
53412;BMP280;39307;52.870;13.660;2023-05-29T13:07:44;101430.00;;;26.24
53412;BMP280;39307;52.870;13.660;2023-05-29T13:10:14;101431.38;;;26.56
53412;BMP280;39307;52.870;13.660;2023-05-29T13:12:42;101427.34;;;26.78
53412;BMP280;39307;52.870;13.660;2023-05-29T13:15:10;101424.38;;;26.90
53412;BMP280;39307;52.870;13.660;2023-05-29T13:17:38;101420.06;;;26.94
53412;BMP280;39307;52.870;13.660;2023-05-29T13:20:11;101421.69;;;26.26
53412;BMP280;39307;52.870;13.660;2023-05-29T13:22:42;101412.84;;;26.35
53412;BMP280;39307;52.870;13.660;2023-05-29T13:25:10;101420.88;;;26.10
53412;BMP280;39307;52.870;13.660;2023-05-29T13:27:38;101418.75;;;25.32
53412;BMP280;39307;52.870;13.660;2023-05-29T13:30:06;101427.19;;;25.10
53412;BMP280;39307;52.870;13.660;2023-05-29T13:32:32;101437.91;;;25.05
53412;BMP280;39307;52.870;13.660;2023-05-29T13:35:01;101431.31;;;25.27
53412;BMP280;39307;52.870;13.660;2023-05-29T13:37:28;101422.63;;;25.61
53412;BMP280;39307;52.870;13.660;2023-05-29T13:39:54;101415.72;;;25.94
53412;BMP280;39307;52.870;13.660;2023-05-29T13:42:21;101420.09;;;26.30
53412;BMP280;39307;52.870;13.660;2023-05-29T13:44:49;101417.69;;;26.48
53412;BMP280;39307;52.870;13.660;2023-05-29T13:47:15;101414.97;;;26.67
53412;BMP280;39307;52.870;13.660;2023-05-29T13:49:42;101417.09;;;26.70
53412;BMP280;39307;52.870;13.660;2023-05-29T13:52:09;101420.63;;;26.81
53412;BMP280;39307;52.870;13.660;2023-05-29T13:54:35;101421.97;;;26.49
53412;BMP280;39307;52.870;13.660;2023-05-29T13:57:03;101416.31;;;26.60
53412;BMP280;39307;52.870;13.660;2023-05-29T13:59:33;101428.13;;;26.15
53412;BMP280;39307;52.870;13.660;2023-05-29T14:02:01;101426.69;;;25.78
53412;BMP280;39307;52.870;13.660;2023-05-29T14:04:29;101421.06;;;25.79
53412;BMP280;39307;52.870;13.660;2023-05-29T14:06:56;101416.34;;;25.36
53412;BMP280;39307;52.870;13.660;2023-05-29T14:09:22;101419.50;;;25.28
53412;BMP280;39307;52.870;13.660;2023-05-29T14:11:49;101418.69;;;24.82